sensor_id;sensor_type;location;lat;lon;timestamp;pressure;altitude;pressure_sealevel;temperature;humidity
74893;BME280;63446;56.272;43.922;2024-03-02T00:00:03;102181.28;;;4.36;62.50
74893;BME280;63446;56.272;43.922;2024-03-02T00:02:42;102184.09;;;4.34;62.63
74893;BME280;63446;56.272;43.922;2024-03-02T00:05:13;102180.38;;;4.29;62.71
74893;BME280;63446;56.272;43.922;2024-03-02T00:07:44;102177.97;;;4.27;62.68
74893;BME280;63446;56.272;43.922;2024-03-02T00:10:19;102182.56;;;4.25;62.99
74893;BME280;63446;56.272;43.922;2024-03-02T00:12:47;102181.94;;;4.23;63.22
74893;BME280;63446;56.272;43.922;2024-03-02T00:18:01;102188.78;;;4.24;63.26
74893;BME280;63446;56.272;43.922;2024-03-02T00:20:27;102183.56;;;4.24;63.39
74893;BME280;63446;56.272;43.922;2024-03-02T00:23:19;102186.53;;;4.21;63.25
74893;BME280;63446;56.272;43.922;2024-03-02T00:25:52;102188.34;;;4.21;63.30
74893;BME280;63446;56.272;43.922;2024-03-02T00:28:24;102177.88;;;4.21;63.35
74893;BME280;63446;56.272;43.922;2024-03-02T00:30:58;102186.53;;;4.21;63.44
74893;BME280;63446;56.272;43.922;2024-03-02T00:33:41;102184.91;;;4.20;63.31
74893;BME280;63446;56.272;43.922;2024-03-02T00:36:09;102186.53;;;4.21;63.22
74893;BME280;63446;56.272;43.922;2024-03-02T00:38:44;102178.06;;;4.19;63.21
74893;BME280;63446;56.272;43.922;2024-03-02T00:41:19;102178.22;;;4.18;62.99
74893;BME280;63446;56.272;43.922;2024-03-02T00:43:59;102180.22;;;4.15;63.04
74893;BME280;63446;56.272;43.922;2024-03-02T00:46:33;102189.25;;;4.13;62.90
74893;BME280;63446;56.272;43.922;2024-03-02T00:49:00;102184.81;;;4.13;62.83
74893;BME280;63446;56.272;43.922;2024-03-02T00:51:29;102191.88;;;4.13;62.84
74893;BME280;63446;56.272;43.922;2024-03-02T00:54:00;102191.06;;;4.12;62.73
74893;BME280;63446;56.272;43.922;2024-03-02T00:56:26;102195.84;;;4.09;62.62
74893;BME280;63446;56.272;43.922;2024-03-02T00:58:53;102185.72;;;4.06;62.58
74893;BME280;63446;56.272;43.922;2024-03-02T01:01:19;102194.28;;;4.00;62.61
74893;BME280;63446;56.272;43.922;2024-03-02T01:03:45;102190.25;;;3.97;62.80
74893;BME280;63446;56.272;43.922;2024-03-02T01:06:11;102194.22;;;3.93;62.84
74893;BME280;63446;56.272;43.922;2024-03-02T01:08:38;102183.91;;;3.91;62.98
74893;BME280;63446;56.272;43.922;2024-03-02T01:11:04;102195.00;;;3.94;62.89
74893;BME280;63446;56.272;43.922;2024-03-02T01:13:31;102193.56;;;3.91;62.78
74893;BME280;63446;56.272;43.922;2024-03-02T01:15:58;102192.94;;;3.89;62.98
74893;BME280;63446;56.272;43.922;2024-03-02T01:18:24;102187.81;;;3.81;62.94
74893;BME280;63446;56.272;43.922;2024-03-02T01:20:50;102203.56;;;3.87;63.08
74893;BME280;63446;56.272;43.922;2024-03-02T01:23:22;102199.69;;;3.83;63.36
74893;BME280;63446;56.272;43.922;2024-03-02T01:25:49;102201.34;;;3.84;63.28
74893;BME280;63446;56.272;43.922;2024-03-02T01:28:16;102208.53;;;3.82;63.24
74893;BME280;63446;56.272;43.922;2024-03-02T01:30:42;102204.47;;;3.80;63.45
74893;BME280;63446;56.272;43.922;2024-03-02T01:33:08;102210.69;;;3.79;63.36
74893;BME280;63446;56.272;43.922;2024-03-02T01:35:35;102216.09;;;3.77;63.35
74893;BME280;63446;56.272;43.922;2024-03-02T01:38:01;102224.09;;;3.76;63.63
74893;BME280;63446;56.272;43.922;2024-03-02T01:40:27;102217.47;;;3.73;63.63
74893;BME280;63446;56.272;43.922;2024-03-02T01:42:54;102217.00;;;3.70;63.84
74893;BME280;63446;56.272;43.922;2024-03-02T01:45:24;102215.00;;;3.72;63.97
74893;BME280;63446;56.272;43.922;2024-03-02T01:47:50;102221.41;;;3.69;64.01
74893;BME280;63446;56.272;43.922;2024-03-02T01:50:27;102214.25;;;3.63;63.88
74893;BME280;63446;56.272;43.922;2024-03-02T01:52:55;102222.47;;;3.60;63.96
74893;BME280;63446;56.272;43.922;2024-03-02T01:55:21;102224.00;;;3.54;64.13
74893;BME280;63446;56.272;43.922;2024-03-02T01:57:47;102229.56;;;3.51;64.17
74893;BME280;63446;56.272;43.922;2024-03-02T02:00:15;102225.03;;;3.45;64.18
74893;BME280;63446;56.272;43.922;2024-03-02T02:02:41;102234.22;;;3.41;64.42
74893;BME280;63446;56.272;43.922;2024-03-02T02:05:07;102223.63;;;3.34;64.38
74893;BME280;63446;56.272;43.922;2024-03-02T02:07:33;102222.34;;;3.30;64.61
74893;BME280;63446;56.272;43.922;2024-03-02T02:10:00;102228.75;;;3.28;64.62
74893;BME280;63446;56.272;43.922;2024-03-02T02:12:29;102225.50;;;3.26;64.81
74893;BME280;63446;56.272;43.922;2024-03-02T02:14:55;102222.25;;;3.24;64.98
74893;BME280;63446;56.272;43.922;2024-03-02T02:17:21;102234.50;;;3.23;65.16
74893;BME280;63446;56.272;43.922;2024-03-02T02:19:47;102223.88;;;3.25;65.23
74893;BME280;63446;56.272;43.922;2024-03-02T02:22:13;102220.28;;;3.26;65.42
74893;BME280;63446;56.272;43.922;2024-03-02T02:24:42;102223.19;;;3.31;65.53
74893;BME280;63446;56.272;43.922;2024-03-02T02:27:09;102214.34;;;3.32;65.63
74893;BME280;63446;56.272;43.922;2024-03-02T02:29:36;102221.00;;;3.34;65.53
74893;BME280;63446;56.272;43.922;2024-03-02T02:32:02;102222.47;;;3.37;65.65
74893;BME280;63446;56.272;43.922;2024-03-02T02:34:28;102222.31;;;3.38;65.77
74893;BME280;63446;56.272;43.922;2024-03-02T02:36:54;102222.13;;;3.40;65.74
74893;BME280;63446;56.272;43.922;2024-03-02T02:39:21;102219.34;;;3.41;65.88
74893;BME280;63446;56.272;43.922;2024-03-02T02:41:48;102220.97;;;3.42;65.77
74893;BME280;63446;56.272;43.922;2024-03-02T02:44:14;102224.22;;;3.45;65.77
74893;BME280;63446;56.272;43.922;2024-03-02T02:46:40;102224.69;;;3.48;65.84
74893;BME280;63446;56.272;43.922;2024-03-02T02:49:06;102229.72;;;3.50;65.77
74893;BME280;63446;56.272;43.922;2024-03-02T02:51:33;102233.63;;;3.54;65.91
74893;BME280;63446;56.272;43.922;2024-03-02T02:53:59;102229.84;;;3.56;65.88
74893;BME280;63446;56.272;43.922;2024-03-02T02:56:25;102238.16;;;3.60;66.11
74893;BME280;63446;56.272;43.922;2024-03-02T02:58:52;102225.41;;;3.57;65.92
74893;BME280;63446;56.272;43.922;2024-03-02T03:01:18;102237.78;;;3.63;65.96
74893;BME280;63446;56.272;43.922;2024-03-02T03:03:44;102230.94;;;3.62;66.06
74893;BME280;63446;56.272;43.922;2024-03-02T03:06:10;102236.47;;;3.67;66.13
74893;BME280;63446;56.272;43.922;2024-03-02T03:08:36;102244.94;;;3.69;65.89
74893;BME280;63446;56.272;43.922;2024-03-02T03:11:03;102232.69;;;3.70;66.00
74893;BME280;63446;56.272;43.922;2024-03-02T03:13:33;102244.56;;;3.72;66.14
74893;BME280;63446;56.272;43.922;2024-03-02T03:15:59;102235.56;;;3.75;66.12
74893;BME280;63446;56.272;43.922;2024-03-02T03:18:25;102231.00;;;3.77;66.07
74893;BME280;63446;56.272;43.922;2024-03-02T03:20:51;102233.22;;;3.80;66.22
74893;BME280;63446;56.272;43.922;2024-03-02T03:23:17;102232.41;;;3.79;66.21
74893;BME280;63446;56.272;43.922;2024-03-02T03:25:43;102233.88;;;3.82;66.17
74893;BME280;63446;56.272;43.922;2024-03-02T03:28:09;102237.28;;;3.82;66.25
74893;BME280;63446;56.272;43.922;2024-03-02T03:30:39;102222.41;;;3.83;66.31
74893;BME280;63446;56.272;43.922;2024-03-02T03:33:05;102233.34;;;3.86;66.24
74893;BME280;63446;56.272;43.922;2024-03-02T03:35:32;102234.78;;;3.89;66.25
74893;BME280;63446;56.272;43.922;2024-03-02T03:37:58;102233.16;;;3.88;66.38
74893;BME280;63446;56.272;43.922;2024-03-02T03:40:24;102233.78;;;3.90;66.30
74893;BME280;63446;56.272;43.922;2024-03-02T03:42:50;102236.22;;;3.91;66.29
74893;BME280;63446;56.272;43.922;2024-03-02T03:45:16;102235.59;;;3.89;66.35
74893;BME280;63446;56.272;43.922;2024-03-02T03:47:42;102246.69;;;3.91;66.40
74893;BME280;63446;56.272;43.922;2024-03-02T03:50:08;102246.34;;;3.95;66.25
74893;BME280;63446;56.272;43.922;2024-03-02T03:52:34;102250.75;;;3.94;66.27
74893;BME280;63446;56.272;43.922;2024-03-02T03:55:01;102253.84;;;3.98;66.27
74893;BME280;63446;56.272;43.922;2024-03-02T03:57:30;102259.69;;;4.00;66.21
74893;BME280;63446;56.272;43.922;2024-03-02T03:59:55;102264.75;;;4.01;66.29
74893;BME280;63446;56.272;43.922;2024-03-02T04:02:21;102260.31;;;4.02;66.22
74893;BME280;63446;56.272;43.922;2024-03-02T04:04:47;102261.94;;;4.03;66.05
74893;BME280;63446;56.272;43.922;2024-03-02T04:07:14;102271.44;;;4.04;66.05
74893;BME280;63446;56.272;43.922;2024-03-02T04:09:39;102265.03;;;4.06;65.98
74893;BME280;63446;56.272;43.922;2024-03-02T04:12:05;102267.63;;;4.06;65.90
74893;BME280;63446;56.272;43.922;2024-03-02T04:14:31;102269.91;;;4.09;65.76
74893;BME280;63446;56.272;43.922;2024-03-02T04:16:57;102261.25;;;4.09;65.75
74893;BME280;63446;56.272;43.922;2024-03-02T04:19:23;102277.22;;;4.14;65.77
74893;BME280;63446;56.272;43.922;2024-03-02T04:21:50;102271.81;;;4.15;65.74
74893;BME280;63446;56.272;43.922;2024-03-02T04:24:16;102275.88;;;4.18;65.44
74893;BME280;63446;56.272;43.922;2024-03-02T04:26:42;102271.28;;;4.20;65.23
74893;BME280;63446;56.272;43.922;2024-03-02T04:29:08;102279.75;;;4.22;65.34
74893;BME280;63446;56.272;43.922;2024-03-02T04:31:34;102276.31;;;4.22;65.22
74893;BME280;63446;56.272;43.922;2024-03-02T04:33:59;102276.78;;;4.25;65.10
74893;BME280;63446;56.272;43.922;2024-03-02T04:36:26;102273.34;;;4.25;64.79
74893;BME280;63446;56.272;43.922;2024-03-02T04:38:52;102273.69;;;4.22;64.70
74893;BME280;63446;56.272;43.922;2024-03-02T04:41:18;102285.78;;;4.23;64.63
74893;BME280;63446;56.272;43.922;2024-03-02T04:43:44;102283.38;;;4.21;64.53
74893;BME280;63446;56.272;43.922;2024-03-02T04:46:10;102280.94;;;4.20;64.44
74893;BME280;63446;56.272;43.922;2024-03-02T04:48:36;102287.53;;;4.15;64.36
74893;BME280;63446;56.272;43.922;2024-03-02T04:51:02;102276.59;;;4.12;64.26
74893;BME280;63446;56.272;43.922;2024-03-02T04:53:28;102282.00;;;4.10;64.35
74893;BME280;63446;56.272;43.922;2024-03-02T04:55:54;102275.31;;;4.08;64.32
74893;BME280;63446;56.272;43.922;2024-03-02T04:58:49;102274.69;;;4.06;64.28
74893;BME280;63446;56.272;43.922;2024-03-02T05:01:15;102281.38;;;4.08;64.38
74893;BME280;63446;56.272;43.922;2024-03-02T05:03:43;102269.91;;;4.09;64.39
74893;BME280;63446;56.272;43.922;2024-03-02T05:06:08;102276.41;;;4.13;64.25
74893;BME280;63446;56.272;43.922;2024-03-02T05:08:34;102270.38;;;4.13;64.18
74893;BME280;63446;56.272;43.922;2024-03-02T05:11:00;102277.22;;;4.14;64.12
74893;BME280;63446;56.272;43.922;2024-03-02T05:13:46;102265.59;;;4.16;64.09
74893;BME280;63446;56.272;43.922;2024-03-02T05:16:13;102283.38;;;4.21;64.12
74893;BME280;63446;56.272;43.922;2024-03-02T05:18:39;102276.16;;;4.23;63.94
74893;BME280;63446;56.272;43.922;2024-03-02T05:21:05;102283.81;;;4.25;63.98
74893;BME280;63446;56.272;43.922;2024-03-02T05:23:31;102280.03;;;4.27;64.02
74893;BME280;63446;56.272;43.922;2024-03-02T05:25:57;102288.16;;;4.32;64.07
74893;BME280;63446;56.272;43.922;2024-03-02T05:28:23;102287.00;;;4.35;63.89
74893;BME280;63446;56.272;43.922;2024-03-02T05:30:49;102293.50;;;4.39;63.81
74893;BME280;63446;56.272;43.922;2024-03-02T05:33:15;102285.81;;;4.37;63.62
74893;BME280;63446;56.272;43.922;2024-03-02T05:35:41;102282.56;;;4.35;63.75
74893;BME280;63446;56.272;43.922;2024-03-02T05:38:09;102289.59;;;4.35;63.82
74893;BME280;63446;56.272;43.922;2024-03-02T05:40:34;102290.88;;;4.39;63.82
74893;BME280;63446;56.272;43.922;2024-03-02T05:43:00;102289.69;;;4.41;63.63
74893;BME280;63446;56.272;43.922;2024-03-02T05:45:27;102297.19;;;4.45;63.56
74893;BME280;63446;56.272;43.922;2024-03-02T05:47:53;102290.59;;;4.49;63.65
74893;BME280;63446;56.272;43.922;2024-03-02T05:50:20;102295.13;;;4.55;63.53
74893;BME280;63446;56.272;43.922;2024-03-02T05:52:46;102296.84;;;4.62;63.42
74893;BME280;63446;56.272;43.922;2024-03-02T05:55:15;102301.31;;;4.69;63.36
74893;BME280;63446;56.272;43.922;2024-03-02T05:57:41;102295.19;;;4.76;63.19
74893;BME280;63446;56.272;43.922;2024-03-02T06:00:11;102302.50;;;4.81;62.99
74893;BME280;63446;56.272;43.922;2024-03-02T06:02:40;102314.06;;;4.86;62.69
74893;BME280;63446;56.272;43.922;2024-03-02T06:05:09;102318.94;;;4.89;62.50
74893;BME280;63446;56.272;43.922;2024-03-02T06:07:36;102309.91;;;4.92;62.31
74893;BME280;63446;56.272;43.922;2024-03-02T06:10:01;102319.19;;;4.95;62.34
74893;BME280;63446;56.272;43.922;2024-03-02T06:12:31;102311.41;;;5.01;62.20
74893;BME280;63446;56.272;43.922;2024-03-02T06:14:58;102321.97;;;5.08;62.13
74893;BME280;63446;56.272;43.922;2024-03-02T06:17:24;102321.22;;;5.14;61.83
74893;BME280;63446;56.272;43.922;2024-03-02T06:19:49;102317.06;;;5.20;61.54
74893;BME280;63446;56.272;43.922;2024-03-02T06:22:15;102323.81;;;5.29;61.44
74893;BME280;63446;56.272;43.922;2024-03-02T06:24:41;102322.91;;;5.36;61.14
74893;BME280;63446;56.272;43.922;2024-03-02T06:27:07;102314.91;;;5.45;60.89
74893;BME280;63446;56.272;43.922;2024-03-02T06:29:33;102319.03;;;5.54;60.63
74893;BME280;63446;56.272;43.922;2024-03-02T06:31:59;102306.41;;;5.64;60.42
74893;BME280;63446;56.272;43.922;2024-03-02T06:34:25;102317.41;;;5.74;60.18
74893;BME280;63446;56.272;43.922;2024-03-02T06:36:51;102322.53;;;5.82;59.93
74893;BME280;63446;56.272;43.922;2024-03-02T06:39:17;102328.31;;;5.93;59.75
74893;BME280;63446;56.272;43.922;2024-03-02T06:41:43;102326.72;;;5.98;59.44
74893;BME280;63446;56.272;43.922;2024-03-02T06:44:10;102329.78;;;6.02;59.38
74893;BME280;63446;56.272;43.922;2024-03-02T06:46:35;102333.06;;;6.10;59.39
74893;BME280;63446;56.272;43.922;2024-03-02T06:49:01;102338.00;;;6.20;59.22
74893;BME280;63446;56.272;43.922;2024-03-02T06:51:29;102338.50;;;6.30;59.15
74893;BME280;63446;56.272;43.922;2024-03-02T06:53:54;102325.59;;;6.35;58.80
74893;BME280;63446;56.272;43.922;2024-03-02T06:56:21;102339.59;;;6.49;58.63
74893;BME280;63446;56.272;43.922;2024-03-02T06:58:47;102335.44;;;6.62;58.08
74893;BME280;63446;56.272;43.922;2024-03-02T07:01:13;102338.72;;;6.70;57.88
74893;BME280;63446;56.272;43.922;2024-03-02T07:03:39;102341.41;;;6.83;57.70
74893;BME280;63446;56.272;43.922;2024-03-02T07:06:05;102328.72;;;6.94;57.40
74893;BME280;63446;56.272;43.922;2024-03-02T07:08:31;102341.09;;;7.00;57.28
74893;BME280;63446;56.272;43.922;2024-03-02T07:10:57;102343.16;;;7.11;57.18
74893;BME280;63446;56.272;43.922;2024-03-02T07:13:23;102344.59;;;7.20;56.81
74893;BME280;63446;56.272;43.922;2024-03-02T07:15:50;102338.34;;;7.28;56.54
74893;BME280;63446;56.272;43.922;2024-03-02T07:18:35;102346.25;;;7.41;56.32
74893;BME280;63446;56.272;43.922;2024-03-02T07:21:07;102348.31;;;7.52;55.88
74893;BME280;63446;56.272;43.922;2024-03-02T07:23:34;102348.13;;;7.61;55.54
74893;BME280;63446;56.272;43.922;2024-03-02T07:26:00;102343.91;;;7.73;55.36
74893;BME280;63446;56.272;43.922;2024-03-02T07:28:27;102346.13;;;7.82;54.90
74893;BME280;63446;56.272;43.922;2024-03-02T07:31:03;102340.47;;;7.99;54.50
74893;BME280;63446;56.272;43.922;2024-03-02T07:33:31;102344.13;;;8.11;54.27
74893;BME280;63446;56.272;43.922;2024-03-02T07:35:57;102343.91;;;8.19;54.06
74893;BME280;63446;56.272;43.922;2024-03-02T07:38:26;102347.56;;;8.25;53.73
74893;BME280;63446;56.272;43.922;2024-03-02T07:40:53;102331.75;;;8.31;53.68
74893;BME280;63446;56.272;43.922;2024-03-02T07:43:19;102336.22;;;8.38;53.35
74893;BME280;63446;56.272;43.922;2024-03-02T07:45:46;102342.28;;;8.45;53.30
74893;BME280;63446;56.272;43.922;2024-03-02T07:48:12;102341.06;;;8.47;52.85
74893;BME280;63446;56.272;43.922;2024-03-02T07:50:38;102335.81;;;8.47;52.73
74893;BME280;63446;56.272;43.922;2024-03-02T07:53:05;102329.31;;;8.50;52.55
74893;BME280;63446;56.272;43.922;2024-03-02T07:55:33;102336.19;;;8.51;52.55
74893;BME280;63446;56.272;43.922;2024-03-02T07:58:03;102329.09;;;8.51;52.52
74893;BME280;63446;56.272;43.922;2024-03-02T08:00:29;102335.56;;;8.55;52.30
74893;BME280;63446;56.272;43.922;2024-03-02T08:02:55;102338.81;;;8.58;52.23
74893;BME280;63446;56.272;43.922;2024-03-02T08:05:21;102332.53;;;8.65;51.91
74893;BME280;63446;56.272;43.922;2024-03-02T08:07:47;102341.59;;;8.76;51.69
74893;BME280;63446;56.272;43.922;2024-03-02T08:10:19;102346.66;;;8.84;51.54
74893;BME280;63446;56.272;43.922;2024-03-02T08:12:46;102340.56;;;8.84;51.47
74893;BME280;63446;56.272;43.922;2024-03-02T08:15:12;102349.47;;;8.83;51.21
74893;BME280;63446;56.272;43.922;2024-03-02T08:17:40;102341.78;;;8.81;51.14
74893;BME280;63446;56.272;43.922;2024-03-02T08:20:14;102337.97;;;8.77;51.20
74893;BME280;63446;56.272;43.922;2024-03-02T08:22:40;102350.53;;;8.75;51.29
74893;BME280;63446;56.272;43.922;2024-03-02T08:25:06;102342.84;;;8.73;51.28
74893;BME280;63446;56.272;43.922;2024-03-02T08:27:33;102335.31;;;8.77;51.14
74893;BME280;63446;56.272;43.922;2024-03-02T08:30:01;102334.88;;;8.87;50.85
74893;BME280;63446;56.272;43.922;2024-03-02T08:32:34;102343.16;;;8.97;50.86
74893;BME280;63446;56.272;43.922;2024-03-02T08:35:00;102338.84;;;9.02;50.50
74893;BME280;63446;56.272;43.922;2024-03-02T08:37:25;102342.53;;;9.01;50.48
74893;BME280;63446;56.272;43.922;2024-03-02T08:39:52;102339.50;;;8.98;50.41
74893;BME280;63446;56.272;43.922;2024-03-02T08:42:18;102327.34;;;8.97;50.29
74893;BME280;63446;56.272;43.922;2024-03-02T08:44:44;102337.88;;;8.97;50.23
74893;BME280;63446;56.272;43.922;2024-03-02T08:47:10;102343.97;;;8.91;50.35
74893;BME280;63446;56.272;43.922;2024-03-02T08:49:36;102345.41;;;8.87;50.52
74893;BME280;63446;56.272;43.922;2024-03-02T08:52:02;102335.66;;;8.94;50.44
74893;BME280;63446;56.272;43.922;2024-03-02T08:54:28;102343.78;;;8.92;50.32
74893;BME280;63446;56.272;43.922;2024-03-02T08:56:53;102339.34;;;8.79;50.20
74893;BME280;63446;56.272;43.922;2024-03-02T08:59:19;102333.66;;;8.83;50.14
74893;BME280;63446;56.272;43.922;2024-03-02T09:01:45;102337.34;;;8.82;50.21
74893;BME280;63446;56.272;43.922;2024-03-02T09:04:11;102342.19;;;8.85;50.45
74893;BME280;63446;56.272;43.922;2024-03-02T09:06:37;102343.78;;;8.92;50.40
74893;BME280;63446;56.272;43.922;2024-03-02T09:09:03;102323.09;;;8.96;50.20
74893;BME280;63446;56.272;43.922;2024-03-02T09:11:30;102330.53;;;9.05;50.00
74893;BME280;63446;56.272;43.922;2024-03-02T09:13:56;102329.31;;;9.08;50.05
74893;BME280;63446;56.272;43.922;2024-03-02T09:16:23;102332.34;;;9.12;49.84
74893;BME280;63446;56.272;43.922;2024-03-02T09:18:50;102329.91;;;9.10;49.73
74893;BME280;63446;56.272;43.922;2024-03-02T09:21:15;102332.97;;;9.07;49.56
74893;BME280;63446;56.272;43.922;2024-03-02T09:23:41;102331.75;;;9.03;49.35
74893;BME280;63446;56.272;43.922;2024-03-02T09:26:07;102331.97;;;9.01;49.54
74893;BME280;63446;56.272;43.922;2024-03-02T09:28:33;102329.56;;;8.93;49.66
74893;BME280;63446;56.272;43.922;2024-03-02T09:31:00;102338.91;;;8.89;49.50
74893;BME280;63446;56.272;43.922;2024-03-02T09:33:27;102333.28;;;8.79;49.64
74893;BME280;63446;56.272;43.922;2024-03-02T09:35:53;102340.94;;;8.87;49.73
74893;BME280;63446;56.272;43.922;2024-03-02T09:38:18;102334.84;;;8.93;49.72
74893;BME280;63446;56.272;43.922;2024-03-02T09:40:44;102343.31;;;9.02;49.62
74893;BME280;63446;56.272;43.922;2024-03-02T09:43:10;102344.34;;;9.08;49.63
74893;BME280;63446;56.272;43.922;2024-03-02T09:45:36;102338.19;;;9.14;49.46
74893;BME280;63446;56.272;43.922;2024-03-02T09:48:02;102346.75;;;9.09;49.48
74893;BME280;63446;56.272;43.922;2024-03-02T09:50:28;102350.66;;;9.00;49.47
74893;BME280;63446;56.272;43.922;2024-03-02T09:52:53;102359.78;;;8.97;49.37
74893;BME280;63446;56.272;43.922;2024-03-02T09:55:20;102358.81;;;8.85;49.40
74893;BME280;63446;56.272;43.922;2024-03-02T09:57:46;102356.44;;;8.70;49.37
74893;BME280;63446;56.272;43.922;2024-03-02T10:00:14;102352.81;;;8.51;49.62
74893;BME280;63446;56.272;43.922;2024-03-02T10:02:41;102358.28;;;8.30;49.67
74893;BME280;63446;56.272;43.922;2024-03-02T10:05:08;102356.69;;;8.09;50.10
74893;BME280;63446;56.272;43.922;2024-03-02T10:07:34;102353.63;;;7.99;50.36
74893;BME280;63446;56.272;43.922;2024-03-02T10:10:14;102359.50;;;7.94;50.40
74893;BME280;63446;56.272;43.922;2024-03-02T10:12:41;102360.13;;;7.90;50.29
74893;BME280;63446;56.272;43.922;2024-03-02T10:15:07;102363.38;;;7.85;50.41
74893;BME280;63446;56.272;43.922;2024-03-02T10:17:35;102362.75;;;7.76;50.65
74893;BME280;63446;56.272;43.922;2024-03-02T10:20:21;102372.25;;;7.71;50.86
74893;BME280;63446;56.272;43.922;2024-03-02T10:22:47;102369.59;;;7.71;50.96
74893;BME280;63446;56.272;43.922;2024-03-02T10:25:28;102366.56;;;7.67;50.98
74893;BME280;63446;56.272;43.922;2024-03-02T10:27:57;102368.38;;;7.60;50.87
74893;BME280;63446;56.272;43.922;2024-03-02T10:30:24;102360.50;;;7.53;51.14
74893;BME280;63446;56.272;43.922;2024-03-02T10:32:49;102368.38;;;7.53;51.30
74893;BME280;63446;56.272;43.922;2024-03-02T10:35:16;102376.06;;;7.55;51.32
74893;BME280;63446;56.272;43.922;2024-03-02T10:37:42;102367.53;;;7.53;51.31
74893;BME280;63446;56.272;43.922;2024-03-02T10:40:10;102376.66;;;7.50;51.50
74893;BME280;63446;56.272;43.922;2024-03-02T10:42:37;102373.38;;;7.42;51.54
74893;BME280;63446;56.272;43.922;2024-03-02T10:45:12;102375.38;;;7.33;51.66
74893;BME280;63446;56.272;43.922;2024-03-02T10:47:38;102382.47;;;7.32;51.83
74893;BME280;63446;56.272;43.922;2024-03-02T10:50:05;102381.28;;;7.35;52.12
74893;BME280;63446;56.272;43.922;2024-03-02T10:52:37;102382.28;;;7.41;52.05
74893;BME280;63446;56.272;43.922;2024-03-02T10:55:03;102380.88;;;7.45;51.95
74893;BME280;63446;56.272;43.922;2024-03-02T10:57:44;102381.50;;;7.47;51.80
74893;BME280;63446;56.272;43.922;2024-03-02T11:00:12;102378.25;;;7.45;51.82
74893;BME280;63446;56.272;43.922;2024-03-02T11:02:46;102387.97;;;7.44;51.80
74893;BME280;63446;56.272;43.922;2024-03-02T11:05:26;102383.34;;;7.46;51.87
74893;BME280;63446;56.272;43.922;2024-03-02T11:07:57;102397.09;;;7.48;51.91
74893;BME280;63446;56.272;43.922;2024-03-02T11:10:34;102388.16;;;7.49;51.94
74893;BME280;63446;56.272;43.922;2024-03-02T11:13:03;102391.63;;;7.56;51.89
74893;BME280;63446;56.272;43.922;2024-03-02T11:15:34;102391.88;;;7.62;51.82
74893;BME280;63446;56.272;43.922;2024-03-02T11:18:04;102395.31;;;7.62;51.85
74893;BME280;63446;56.272;43.922;2024-03-02T11:20:36;102396.31;;;7.54;51.94
74893;BME280;63446;56.272;43.922;2024-03-02T11:23:06;102394.44;;;7.48;51.82
74893;BME280;63446;56.272;43.922;2024-03-02T11:25:32;102393.06;;;7.46;51.83
74893;BME280;63446;56.272;43.922;2024-03-02T11:27:59;102398.50;;;7.44;51.95
74893;BME280;63446;56.272;43.922;2024-03-02T11:32:58;102397.09;;;7.55;51.94
74893;BME280;63446;56.272;43.922;2024-03-02T11:35:27;102391.66;;;7.63;51.68
74893;BME280;63446;56.272;43.922;2024-03-02T11:37:56;102390.44;;;7.72;51.53
74893;BME280;63446;56.272;43.922;2024-03-02T11:40:26;102395.75;;;7.79;51.56
74893;BME280;63446;56.272;43.922;2024-03-02T11:42:52;102394.53;;;7.81;51.45
74893;BME280;63446;56.272;43.922;2024-03-02T11:45:23;102392.69;;;7.75;51.36
74893;BME280;63446;56.272;43.922;2024-03-02T11:47:57;102398.16;;;7.74;51.57
74893;BME280;63446;56.272;43.922;2024-03-02T11:50:34;102399.19;;;7.73;51.70
74893;BME280;63446;56.272;43.922;2024-03-02T11:53:02;102400.41;;;7.77;51.93
74893;BME280;63446;56.272;43.922;2024-03-02T11:55:32;102397.97;;;7.82;51.84
74893;BME280;63446;56.272;43.922;2024-03-02T11:58:02;102408.50;;;7.82;51.69
74893;BME280;63446;56.272;43.922;2024-03-02T12:00:27;102403.25;;;7.82;51.73
74893;BME280;63446;56.272;43.922;2024-03-02T12:05:28;102408.91;;;7.86;51.90
74893;BME280;63446;56.272;43.922;2024-03-02T12:08:01;102408.91;;;7.86;51.94
74893;BME280;63446;56.272;43.922;2024-03-02T12:10:29;102415.81;;;7.87;51.90
74893;BME280;63446;56.272;43.922;2024-03-02T12:13:00;102421.47;;;7.90;51.92
74893;BME280;63446;56.272;43.922;2024-03-02T12:15:27;102419.66;;;7.91;51.95
74893;BME280;63446;56.272;43.922;2024-03-02T12:17:58;102414.59;;;7.89;51.96
74893;BME280;63446;56.272;43.922;2024-03-02T12:20:25;102420.25;;;7.86;51.94
74893;BME280;63446;56.272;43.922;2024-03-02T12:22:52;102427.16;;;7.80;51.92
74893;BME280;63446;56.272;43.922;2024-03-02T12:25:20;102424.06;;;7.70;51.83
74893;BME280;63446;56.272;43.922;2024-03-02T12:27:51;102424.03;;;7.57;52.14
74893;BME280;63446;56.272;43.922;2024-03-02T12:30:17;102426.22;;;7.47;52.28
74893;BME280;63446;56.272;43.922;2024-03-02T12:32:44;102424.75;;;7.38;52.43
74893;BME280;63446;56.272;43.922;2024-03-02T12:35:11;102423.53;;;7.27;52.58
74893;BME280;63446;56.272;43.922;2024-03-02T12:37:47;102427.69;;;7.15;52.79
74893;BME280;63446;56.272;43.922;2024-03-02T12:40:14;102420.56;;;7.02;53.03
74893;BME280;63446;56.272;43.922;2024-03-02T12:42:41;102417.66;;;6.90;53.18
74893;BME280;63446;56.272;43.922;2024-03-02T12:45:11;102426.53;;;6.82;53.34
74893;BME280;63446;56.272;43.922;2024-03-02T12:47:39;102420.59;;;6.74;53.48
74893;BME280;63446;56.272;43.922;2024-03-02T12:50:07;102430.25;;;6.67;53.59
74893;BME280;63446;56.272;43.922;2024-03-02T12:52:33;102418.50;;;6.63;53.58
74893;BME280;63446;56.272;43.922;2024-03-02T12:55:01;102426.41;;;6.63;53.62
74893;BME280;63446;56.272;43.922;2024-03-02T12:57:30;102414.28;;;6.62;53.53
74893;BME280;63446;56.272;43.922;2024-03-02T13:00:02;102420.94;;;6.64;53.51